Cranbury, New Jersey
Current Conditions -  °F | °C
As of 4:53 AM on Thursday 23 Oct 2014 (Local Time) from KTTN Reporting Station
Overcast Overcast  
Wind Chill: 52°   Ceiling: 2100
Heat Index: 52°   Visibility: 10mi
Dew Point: 45°   Wind: 13mph
Humidity: 77%   Direction: 350°N
Pressure: 29.73"   Gusts: NA
Location:  40.32°N, 74.51°W
Report Text: KTTN 230853Z AUTO 35011KT 10SM OVC021 11/07 A2973 RMK AO2 RAE0758 SLP062 P0000 60001 T01110072 55002
Loading
Personal Weather Stations






























Interactive Weather Map New forecast layout! Learn more

10-Day Weather Forecast

Advertisements
Track Severe Weather on mobile